sensor_id;sensor_type;location;lat;lon;timestamp;temperature;humidity
25825;DHT22;13658;44.534;18.694;2023-05-31T00:00:26;15.00;99.90
25825;DHT22;13658;44.534;18.694;2023-05-31T00:02:52;15.00;99.90
25825;DHT22;13658;44.534;18.694;2023-05-31T00:05:18;15.10;99.90
25825;DHT22;13658;44.534;18.694;2023-05-31T00:07:44;15.00;99.90
25825;DHT22;13658;44.534;18.694;2023-05-31T00:10:10;15.00;99.90
25825;DHT22;13658;44.534;18.694;2023-05-31T00:12:35;15.10;99.90
25825;DHT22;13658;44.534;18.694;2023-05-31T00:15:02;15.00;99.90
25825;DHT22;13658;44.534;18.694;2023-05-31T00:17:28;15.00;99.90
25825;DHT22;13658;44.534;18.694;2023-05-31T00:19:54;15.10;99.90
25825;DHT22;13658;44.534;18.694;2023-05-31T00:22:20;15.10;99.90
25825;DHT22;13658;44.534;18.694;2023-05-31T00:24:46;15.10;99.90
25825;DHT22;13658;44.534;18.694;2023-05-31T00:27:12;15.10;99.90
25825;DHT22;13658;44.534;18.694;2023-05-31T00:29:38;15.10;99.90
25825;DHT22;13658;44.534;18.694;2023-05-31T00:32:04;15.00;99.90
25825;DHT22;13658;44.534;18.694;2023-05-31T00:34:30;15.00;99.90
25825;DHT22;13658;44.534;18.694;2023-05-31T00:36:56;14.90;99.90
25825;DHT22;13658;44.534;18.694;2023-05-31T00:39:22;14.90;99.90
25825;DHT22;13658;44.534;18.694;2023-05-31T00:41:48;14.90;99.90
25825;DHT22;13658;44.534;18.694;2023-05-31T00:44:14;14.90;99.90
25825;DHT22;13658;44.534;18.694;2023-05-31T00:46:41;14.80;99.90
25825;DHT22;13658;44.534;18.694;2023-05-31T00:49:07;14.80;99.90
25825;DHT22;13658;44.534;18.694;2023-05-31T00:51:34;14.80;99.90
25825;DHT22;13658;44.534;18.694;2023-05-31T00:54:01;14.80;99.90
25825;DHT22;13658;44.534;18.694;2023-05-31T00:56:28;14.80;99.90
25825;DHT22;13658;44.534;18.694;2023-05-31T00:58:59;14.80;99.90
25825;DHT22;13658;44.534;18.694;2023-05-31T01:01:26;14.80;99.90
25825;DHT22;13658;44.534;18.694;2023-05-31T01:03:56;14.80;99.90
25825;DHT22;13658;44.534;18.694;2023-05-31T01:06:23;14.80;99.90
25825;DHT22;13658;44.534;18.694;2023-05-31T01:08:51;14.80;99.90
25825;DHT22;13658;44.534;18.694;2023-05-31T01:14:33;14.80;99.90
25825;DHT22;13658;44.534;18.694;2023-05-31T01:17:23;14.80;99.90
25825;DHT22;13658;44.534;18.694;2023-05-31T01:20:06;14.80;99.90
25825;DHT22;13658;44.534;18.694;2023-05-31T01:28:21;14.80;99.90
25825;DHT22;13658;44.534;18.694;2023-05-31T01:30:49;14.80;99.90
25825;DHT22;13658;44.534;18.694;2023-05-31T01:33:17;14.80;99.90
25825;DHT22;13658;44.534;18.694;2023-05-31T01:35:43;14.80;99.90
25825;DHT22;13658;44.534;18.694;2023-05-31T01:38:12;14.80;99.90
25825;DHT22;13658;44.534;18.694;2023-05-31T01:40:38;14.70;99.90
25825;DHT22;13658;44.534;18.694;2023-05-31T01:43:06;14.70;99.90
25825;DHT22;13658;44.534;18.694;2023-05-31T01:45:33;14.70;99.90
25825;DHT22;13658;44.534;18.694;2023-05-31T01:48:05;14.70;99.90
25825;DHT22;13658;44.534;18.694;2023-05-31T01:50:34;14.80;99.90
25825;DHT22;13658;44.534;18.694;2023-05-31T01:53:01;14.90;99.90
25825;DHT22;13658;44.534;18.694;2023-05-31T01:55:29;14.80;99.90
25825;DHT22;13658;44.534;18.694;2023-05-31T01:57:56;14.80;99.90
25825;DHT22;13658;44.534;18.694;2023-05-31T02:00:26;14.80;99.90
25825;DHT22;13658;44.534;18.694;2023-05-31T02:02:53;14.80;99.90
25825;DHT22;13658;44.534;18.694;2023-05-31T02:05:21;14.80;99.90
25825;DHT22;13658;44.534;18.694;2023-05-31T02:07:47;14.80;99.90
25825;DHT22;13658;44.534;18.694;2023-05-31T02:10:14;14.70;99.90
25825;DHT22;13658;44.534;18.694;2023-05-31T02:12:41;14.70;99.90
25825;DHT22;13658;44.534;18.694;2023-05-31T02:15:08;14.80;99.90
25825;DHT22;13658;44.534;18.694;2023-05-31T02:17:40;14.80;99.90
25825;DHT22;13658;44.534;18.694;2023-05-31T02:20:13;14.70;99.90
25825;DHT22;13658;44.534;18.694;2023-05-31T02:22:44;14.70;99.90
25825;DHT22;13658;44.534;18.694;2023-05-31T02:25:12;14.70;99.90
25825;DHT22;13658;44.534;18.694;2023-05-31T02:27:40;14.70;99.90
25825;DHT22;13658;44.534;18.694;2023-05-31T02:30:07;14.70;99.90
25825;DHT22;13658;44.534;18.694;2023-05-31T02:32:35;14.70;99.90
25825;DHT22;13658;44.534;18.694;2023-05-31T02:35:08;14.70;99.90
25825;DHT22;13658;44.534;18.694;2023-05-31T02:37:36;14.70;99.90
25825;DHT22;13658;44.534;18.694;2023-05-31T02:40:04;14.70;99.90
25825;DHT22;13658;44.534;18.694;2023-05-31T02:42:35;14.70;99.90
25825;DHT22;13658;44.534;18.694;2023-05-31T02:45:02;14.70;99.90
25825;DHT22;13658;44.534;18.694;2023-05-31T02:47:28;14.70;99.90
25825;DHT22;13658;44.534;18.694;2023-05-31T02:49:55;14.70;99.90
25825;DHT22;13658;44.534;18.694;2023-05-31T02:52:23;14.70;99.90
25825;DHT22;13658;44.534;18.694;2023-05-31T02:55:13;14.70;99.90
25825;DHT22;13658;44.534;18.694;2023-05-31T02:57:59;14.70;99.90
25825;DHT22;13658;44.534;18.694;2023-05-31T03:00:26;14.70;99.90
25825;DHT22;13658;44.534;18.694;2023-05-31T03:02:52;14.70;99.90
25825;DHT22;13658;44.534;18.694;2023-05-31T03:05:41;14.80;99.90
25825;DHT22;13658;44.534;18.694;2023-05-31T03:08:07;14.70;99.90
25825;DHT22;13658;44.534;18.694;2023-05-31T03:10:33;14.80;99.90
25825;DHT22;13658;44.534;18.694;2023-05-31T03:12:59;14.80;99.90
25825;DHT22;13658;44.534;18.694;2023-05-31T03:15:25;14.80;99.90
25825;DHT22;13658;44.534;18.694;2023-05-31T03:17:51;14.80;99.90
25825;DHT22;13658;44.534;18.694;2023-05-31T03:20:17;14.80;99.90
25825;DHT22;13658;44.534;18.694;2023-05-31T03:22:44;14.80;99.90
25825;DHT22;13658;44.534;18.694;2023-05-31T03:25:11;14.80;99.90
25825;DHT22;13658;44.534;18.694;2023-05-31T03:27:37;14.80;99.90
25825;DHT22;13658;44.534;18.694;2023-05-31T03:30:03;14.90;99.90
25825;DHT22;13658;44.534;18.694;2023-05-31T03:32:35;14.90;99.90
25825;DHT22;13658;44.534;18.694;2023-05-31T03:35:01;14.90;99.90
25825;DHT22;13658;44.534;18.694;2023-05-31T03:37:27;14.90;99.90
25825;DHT22;13658;44.534;18.694;2023-05-31T03:40:01;14.90;99.90
25825;DHT22;13658;44.534;18.694;2023-05-31T03:42:30;14.90;99.90
25825;DHT22;13658;44.534;18.694;2023-05-31T03:44:57;14.90;99.90
25825;DHT22;13658;44.534;18.694;2023-05-31T03:47:24;14.90;99.90
25825;DHT22;13658;44.534;18.694;2023-05-31T03:49:50;14.90;99.90
25825;DHT22;13658;44.534;18.694;2023-05-31T03:52:16;14.90;99.90
25825;DHT22;13658;44.534;18.694;2023-05-31T03:54:42;14.80;99.90
25825;DHT22;13658;44.534;18.694;2023-05-31T03:57:08;14.90;99.90
25825;DHT22;13658;44.534;18.694;2023-05-31T03:59:34;14.90;99.90
25825;DHT22;13658;44.534;18.694;2023-05-31T04:02:02;14.90;99.90
25825;DHT22;13658;44.534;18.694;2023-05-31T04:04:28;14.90;99.90
25825;DHT22;13658;44.534;18.694;2023-05-31T04:06:55;14.90;99.90
25825;DHT22;13658;44.534;18.694;2023-05-31T04:09:21;14.90;99.90
25825;DHT22;13658;44.534;18.694;2023-05-31T04:11:49;14.90;99.90
25825;DHT22;13658;44.534;18.694;2023-05-31T04:14:15;15.00;99.90
25825;DHT22;13658;44.534;18.694;2023-05-31T04:16:42;15.00;99.90
25825;DHT22;13658;44.534;18.694;2023-05-31T04:19:09;15.00;99.90
25825;DHT22;13658;44.534;18.694;2023-05-31T04:21:36;15.00;99.90
25825;DHT22;13658;44.534;18.694;2023-05-31T04:24:02;15.00;99.90
25825;DHT22;13658;44.534;18.694;2023-05-31T04:26:28;15.00;99.90
25825;DHT22;13658;44.534;18.694;2023-05-31T04:28:58;15.10;99.90
25825;DHT22;13658;44.534;18.694;2023-05-31T04:31:27;15.10;99.90
25825;DHT22;13658;44.534;18.694;2023-05-31T04:33:56;15.20;99.90
25825;DHT22;13658;44.534;18.694;2023-05-31T04:36:24;15.20;99.90
25825;DHT22;13658;44.534;18.694;2023-05-31T04:38:50;15.20;99.90
25825;DHT22;13658;44.534;18.694;2023-05-31T04:41:22;15.20;99.90
25825;DHT22;13658;44.534;18.694;2023-05-31T04:43:54;15.20;99.90
25825;DHT22;13658;44.534;18.694;2023-05-31T04:46:24;15.20;99.90
25825;DHT22;13658;44.534;18.694;2023-05-31T04:48:51;15.10;99.90
25825;DHT22;13658;44.534;18.694;2023-05-31T04:51:19;15.10;99.90
25825;DHT22;13658;44.534;18.694;2023-05-31T04:53:45;15.20;99.90
25825;DHT22;13658;44.534;18.694;2023-05-31T04:56:15;15.20;99.90
25825;DHT22;13658;44.534;18.694;2023-05-31T04:58:43;15.20;99.90
25825;DHT22;13658;44.534;18.694;2023-05-31T05:01:09;15.20;99.90
25825;DHT22;13658;44.534;18.694;2023-05-31T05:03:43;15.30;99.90
25825;DHT22;13658;44.534;18.694;2023-05-31T05:06:13;15.30;99.90
25825;DHT22;13658;44.534;18.694;2023-05-31T05:08:40;15.30;99.90
25825;DHT22;13658;44.534;18.694;2023-05-31T05:11:07;15.30;99.90
25825;DHT22;13658;44.534;18.694;2023-05-31T05:13:34;15.30;99.90
25825;DHT22;13658;44.534;18.694;2023-05-31T05:16:00;15.30;99.90
25825;DHT22;13658;44.534;18.694;2023-05-31T05:18:26;15.40;99.90
25825;DHT22;13658;44.534;18.694;2023-05-31T05:20:53;15.40;99.90
25825;DHT22;13658;44.534;18.694;2023-05-31T05:23:24;15.50;99.90
25825;DHT22;13658;44.534;18.694;2023-05-31T05:25:51;15.50;99.90
25825;DHT22;13658;44.534;18.694;2023-05-31T05:28:18;15.50;99.90
25825;DHT22;13658;44.534;18.694;2023-05-31T05:30:44;15.50;99.90
25825;DHT22;13658;44.534;18.694;2023-05-31T05:33:11;15.50;99.90
25825;DHT22;13658;44.534;18.694;2023-05-31T05:35:37;15.60;99.90
25825;DHT22;13658;44.534;18.694;2023-05-31T05:38:03;15.60;99.90
25825;DHT22;13658;44.534;18.694;2023-05-31T05:40:30;15.70;99.90
25825;DHT22;13658;44.534;18.694;2023-05-31T05:42:56;15.80;99.90
25825;DHT22;13658;44.534;18.694;2023-05-31T05:45:23;15.80;99.90
25825;DHT22;13658;44.534;18.694;2023-05-31T05:47:49;15.80;99.90
25825;DHT22;13658;44.534;18.694;2023-05-31T05:50:17;15.90;99.90
25825;DHT22;13658;44.534;18.694;2023-05-31T05:52:43;16.00;99.90
25825;DHT22;13658;44.534;18.694;2023-05-31T05:55:09;16.00;99.90
25825;DHT22;13658;44.534;18.694;2023-05-31T05:57:35;16.10;99.90
25825;DHT22;13658;44.534;18.694;2023-05-31T06:00:21;16.20;99.90
25825;DHT22;13658;44.534;18.694;2023-05-31T06:02:50;16.30;99.90
25825;DHT22;13658;44.534;18.694;2023-05-31T06:05:16;16.40;99.90
25825;DHT22;13658;44.534;18.694;2023-05-31T06:07:43;16.40;99.90
25825;DHT22;13658;44.534;18.694;2023-05-31T06:10:12;16.40;99.90
25825;DHT22;13658;44.534;18.694;2023-05-31T06:12:38;16.50;99.90
25825;DHT22;13658;44.534;18.694;2023-05-31T06:15:06;16.50;99.90
25825;DHT22;13658;44.534;18.694;2023-05-31T06:17:32;16.60;99.90
25825;DHT22;13658;44.534;18.694;2023-05-31T06:19:58;16.60;99.90
25825;DHT22;13658;44.534;18.694;2023-05-31T06:22:24;16.60;99.90
25825;DHT22;13658;44.534;18.694;2023-05-31T06:24:50;16.50;99.90
25825;DHT22;13658;44.534;18.694;2023-05-31T06:27:17;16.60;99.90
25825;DHT22;13658;44.534;18.694;2023-05-31T06:29:44;16.60;99.90
25825;DHT22;13658;44.534;18.694;2023-05-31T06:32:20;16.50;99.90
25825;DHT22;13658;44.534;18.694;2023-05-31T06:34:47;16.50;99.90
25825;DHT22;13658;44.534;18.694;2023-05-31T06:37:14;16.60;99.90
25825;DHT22;13658;44.534;18.694;2023-05-31T06:39:40;16.70;99.90
25825;DHT22;13658;44.534;18.694;2023-05-31T06:42:06;16.70;99.90
25825;DHT22;13658;44.534;18.694;2023-05-31T06:44:44;16.90;99.90
25825;DHT22;13658;44.534;18.694;2023-05-31T06:47:19;16.90;99.90
25825;DHT22;13658;44.534;18.694;2023-05-31T06:50:12;17.00;99.90
25825;DHT22;13658;44.534;18.694;2023-05-31T06:52:56;17.20;99.90
25825;DHT22;13658;44.534;18.694;2023-05-31T06:55:48;17.40;99.90
25825;DHT22;13658;44.534;18.694;2023-05-31T06:58:18;17.60;99.90
25825;DHT22;13658;44.534;18.694;2023-05-31T07:00:46;17.70;99.90
25825;DHT22;13658;44.534;18.694;2023-05-31T07:03:12;17.70;99.90
25825;DHT22;13658;44.534;18.694;2023-05-31T07:05:38;17.80;99.90
25825;DHT22;13658;44.534;18.694;2023-05-31T07:08:08;17.80;99.90
25825;DHT22;13658;44.534;18.694;2023-05-31T07:10:44;17.90;99.90
25825;DHT22;13658;44.534;18.694;2023-05-31T07:13:11;18.00;99.90
25825;DHT22;13658;44.534;18.694;2023-05-31T07:15:37;18.10;99.90
25825;DHT22;13658;44.534;18.694;2023-05-31T07:18:03;18.20;99.90
25825;DHT22;13658;44.534;18.694;2023-05-31T07:20:31;18.40;99.90
25825;DHT22;13658;44.534;18.694;2023-05-31T07:22:57;18.40;99.90
25825;DHT22;13658;44.534;18.694;2023-05-31T07:25:23;18.40;99.90
25825;DHT22;13658;44.534;18.694;2023-05-31T07:27:50;18.40;99.90
25825;DHT22;13658;44.534;18.694;2023-05-31T07:30:16;18.50;99.90
25825;DHT22;13658;44.534;18.694;2023-05-31T07:32:42;18.80;99.90
25825;DHT22;13658;44.534;18.694;2023-05-31T07:35:08;18.90;99.90
25825;DHT22;13658;44.534;18.694;2023-05-31T07:37:34;19.00;99.90
25825;DHT22;13658;44.534;18.694;2023-05-31T07:40:00;19.30;99.90
25825;DHT22;13658;44.534;18.694;2023-05-31T07:42:26;19.50;99.90
25825;DHT22;13658;44.534;18.694;2023-05-31T07:44:55;19.60;99.90
25825;DHT22;13658;44.534;18.694;2023-05-31T07:47:21;19.80;99.90
25825;DHT22;13658;44.534;18.694;2023-05-31T07:49:47;19.60;99.90
25825;DHT22;13658;44.534;18.694;2023-05-31T07:52:17;19.90;99.90
25825;DHT22;13658;44.534;18.694;2023-05-31T07:54:50;20.30;99.90
25825;DHT22;13658;44.534;18.694;2023-05-31T07:57:16;20.60;99.90
25825;DHT22;13658;44.534;18.694;2023-05-31T07:59:42;20.80;99.90
25825;DHT22;13658;44.534;18.694;2023-05-31T08:02:08;21.10;99.90
25825;DHT22;13658;44.534;18.694;2023-05-31T08:04:34;21.70;99.90
25825;DHT22;13658;44.534;18.694;2023-05-31T08:07:00;21.80;99.90
25825;DHT22;13658;44.534;18.694;2023-05-31T08:09:26;21.90;99.90
25825;DHT22;13658;44.534;18.694;2023-05-31T08:11:53;22.30;99.90
25825;DHT22;13658;44.534;18.694;2023-05-31T08:14:19;22.40;99.90
25825;DHT22;13658;44.534;18.694;2023-05-31T08:16:45;22.20;99.90
25825;DHT22;13658;44.534;18.694;2023-05-31T08:19:11;22.00;99.90
25825;DHT22;13658;44.534;18.694;2023-05-31T08:21:38;21.50;99.90
25825;DHT22;13658;44.534;18.694;2023-05-31T08:24:04;21.30;99.90
25825;DHT22;13658;44.534;18.694;2023-05-31T08:26:34;21.20;99.90
25825;DHT22;13658;44.534;18.694;2023-05-31T08:29:00;21.40;99.90
25825;DHT22;13658;44.534;18.694;2023-05-31T08:31:27;21.80;99.90
25825;DHT22;13658;44.534;18.694;2023-05-31T08:34:02;22.00;99.90
25825;DHT22;13658;44.534;18.694;2023-05-31T08:36:28;22.20;99.90
25825;DHT22;13658;44.534;18.694;2023-05-31T08:38:54;22.50;99.90
25825;DHT22;13658;44.534;18.694;2023-05-31T08:41:22;22.80;99.90
25825;DHT22;13658;44.534;18.694;2023-05-31T08:43:48;23.10;99.90
25825;DHT22;13658;44.534;18.694;2023-05-31T08:46:15;23.00;99.90
25825;DHT22;13658;44.534;18.694;2023-05-31T08:48:54;22.40;99.90
25825;DHT22;13658;44.534;18.694;2023-05-31T08:51:26;22.40;99.90
25825;DHT22;13658;44.534;18.694;2023-05-31T08:53:52;22.10;99.90
25825;DHT22;13658;44.534;18.694;2023-05-31T08:56:21;21.80;99.90
25825;DHT22;13658;44.534;18.694;2023-05-31T08:58:50;21.80;99.90
25825;DHT22;13658;44.534;18.694;2023-05-31T09:01:20;21.70;99.90
25825;DHT22;13658;44.534;18.694;2023-05-31T09:03:46;21.80;99.90
25825;DHT22;13658;44.534;18.694;2023-05-31T09:06:12;21.80;99.90
25825;DHT22;13658;44.534;18.694;2023-05-31T09:08:38;22.00;99.90
25825;DHT22;13658;44.534;18.694;2023-05-31T09:11:06;22.10;99.90
25825;DHT22;13658;44.534;18.694;2023-05-31T09:13:33;22.00;99.90
25825;DHT22;13658;44.534;18.694;2023-05-31T09:16:00;21.80;99.90
25825;DHT22;13658;44.534;18.694;2023-05-31T09:18:26;21.80;99.90
25825;DHT22;13658;44.534;18.694;2023-05-31T09:20:57;21.70;99.90
25825;DHT22;13658;44.534;18.694;2023-05-31T09:23:32;21.90;99.90
25825;DHT22;13658;44.534;18.694;2023-05-31T09:25:58;22.00;99.90
25825;DHT22;13658;44.534;18.694;2023-05-31T09:28:25;22.20;99.90
25825;DHT22;13658;44.534;18.694;2023-05-31T09:31:04;22.50;99.90
25825;DHT22;13658;44.534;18.694;2023-05-31T09:33:38;22.40;99.90
25825;DHT22;13658;44.534;18.694;2023-05-31T09:36:08;22.40;99.90
25825;DHT22;13658;44.534;18.694;2023-05-31T09:38:35;22.90;99.90
25825;DHT22;13658;44.534;18.694;2023-05-31T09:41:20;23.70;99.90
25825;DHT22;13658;44.534;18.694;2023-05-31T09:43:48;24.50;99.90
25825;DHT22;13658;44.534;18.694;2023-05-31T09:46:19;25.60;99.90
25825;DHT22;13658;44.534;18.694;2023-05-31T09:48:56;25.40;99.90
25825;DHT22;13658;44.534;18.694;2023-05-31T09:51:23;26.00;99.90
25825;DHT22;13658;44.534;18.694;2023-05-31T09:53:49;26.20;99.90
25825;DHT22;13658;44.534;18.694;2023-05-31T09:56:19;26.00;99.90
25825;DHT22;13658;44.534;18.694;2023-05-31T09:58:48;25.60;99.90
25825;DHT22;13658;44.534;18.694;2023-05-31T10:01:18;25.70;99.90
25825;DHT22;13658;44.534;18.694;2023-05-31T10:03:44;25.60;99.90
25825;DHT22;13658;44.534;18.694;2023-05-31T10:06:11;26.00;99.90
25825;DHT22;13658;44.534;18.694;2023-05-31T10:08:38;25.90;99.90
25825;DHT22;13658;44.534;18.694;2023-05-31T10:11:04;25.50;99.90
25825;DHT22;13658;44.534;18.694;2023-05-31T10:13:31;25.50;99.90
25825;DHT22;13658;44.534;18.694;2023-05-31T10:16:05;24.70;99.90
25825;DHT22;13658;44.534;18.694;2023-05-31T10:18:33;24.60;99.90
25825;DHT22;13658;44.534;18.694;2023-05-31T10:21:19;23.90;99.90
25825;DHT22;13658;44.534;18.694;2023-05-31T10:24:13;23.80;99.90
25825;DHT22;13658;44.534;18.694;2023-05-31T10:29:51;23.60;99.90
25825;DHT22;13658;44.534;18.694;2023-05-31T10:32:28;23.40;99.90
25825;DHT22;13658;44.534;18.694;2023-05-31T10:34:55;22.90;99.90
25825;DHT22;13658;44.534;18.694;2023-05-31T10:37:21;22.50;99.90
25825;DHT22;13658;44.534;18.694;2023-05-31T10:40:16;22.60;99.90
25825;DHT22;13658;44.534;18.694;2023-05-31T10:42:57;22.60;99.90
25825;DHT22;13658;44.534;18.694;2023-05-31T10:45:48;22.60;99.90
25825;DHT22;13658;44.534;18.694;2023-05-31T10:48:29;22.70;99.90
25825;DHT22;13658;44.534;18.694;2023-05-31T10:50:56;22.60;99.90
25825;DHT22;13658;44.534;18.694;2023-05-31T10:53:30;22.70;99.90
25825;DHT22;13658;44.534;18.694;2023-05-31T10:56:11;22.90;99.90
25825;DHT22;13658;44.534;18.694;2023-05-31T10:58:48;23.10;99.90
25825;DHT22;13658;44.534;18.694;2023-05-31T11:01:17;23.20;99.90
25825;DHT22;13658;44.534;18.694;2023-05-31T11:03:48;23.30;99.90
25825;DHT22;13658;44.534;18.694;2023-05-31T11:06:16;23.60;99.90
25825;DHT22;13658;44.534;18.694;2023-05-31T11:08:58;23.70;99.90
25825;DHT22;13658;44.534;18.694;2023-05-31T11:11:25;24.10;99.90
25825;DHT22;13658;44.534;18.694;2023-05-31T11:14:02;24.60;99.90
25825;DHT22;13658;44.534;18.694;2023-05-31T11:19:30;24.40;99.90
25825;DHT22;13658;44.534;18.694;2023-05-31T11:21:57;24.40;99.90
25825;DHT22;13658;44.534;18.694;2023-05-31T11:26:58;24.30;99.90
25825;DHT22;13658;44.534;18.694;2023-05-31T11:29:25;24.70;99.90
25825;DHT22;13658;44.534;18.694;2023-05-31T11:32:15;24.70;99.90
25825;DHT22;13658;44.534;18.694;2023-05-31T11:35:03;24.60;99.90
25825;DHT22;13658;44.534;18.694;2023-05-31T11:37:31;24.60;99.90
25825;DHT22;13658;44.534;18.694;2023-05-31T11:40:02;24.60;99.90
25825;DHT22;13658;44.534;18.694;2023-05-31T11:42:34;24.80;99.90
25825;DHT22;13658;44.534;18.694;2023-05-31T11:45:11;24.90;99.90
25825;DHT22;13658;44.534;18.694;2023-05-31T11:48:05;24.90;99.90
25825;DHT22;13658;44.534;18.694;2023-05-31T11:50:33;25.10;99.90
25825;DHT22;13658;44.534;18.694;2023-05-31T11:53:03;25.20;99.90
25825;DHT22;13658;44.534;18.694;2023-05-31T11:55:30;25.10;99.90
25825;DHT22;13658;44.534;18.694;2023-05-31T11:58:01;25.10;99.90
25825;DHT22;13658;44.534;18.694;2023-05-31T12:00:28;25.10;99.90
25825;DHT22;13658;44.534;18.694;2023-05-31T12:02:56;25.00;99.90
25825;DHT22;13658;44.534;18.694;2023-05-31T12:05:22;24.90;99.90
25825;DHT22;13658;44.534;18.694;2023-05-31T12:07:53;24.40;99.90
25825;DHT22;13658;44.534;18.694;2023-05-31T12:10:19;24.00;99.90
25825;DHT22;13658;44.534;18.694;2023-05-31T12:12:48;24.10;99.90
25825;DHT22;13658;44.534;18.694;2023-05-31T12:15:16;23.80;99.90
25825;DHT22;13658;44.534;18.694;2023-05-31T12:17:42;24.10;99.90
25825;DHT22;13658;44.534;18.694;2023-05-31T12:20:09;23.60;99.90
25825;DHT22;13658;44.534;18.694;2023-05-31T12:22:38;23.80;99.90
25825;DHT22;13658;44.534;18.694;2023-05-31T12:25:05;23.60;99.90
25825;DHT22;13658;44.534;18.694;2023-05-31T12:27:31;23.40;99.90
25825;DHT22;13658;44.534;18.694;2023-05-31T12:29:58;23.50;99.90
25825;DHT22;13658;44.534;18.694;2023-05-31T12:32:24;23.50;99.90
25825;DHT22;13658;44.534;18.694;2023-05-31T12:35:03;23.40;99.90
25825;DHT22;13658;44.534;18.694;2023-05-31T12:37:35;23.50;99.90
25825;DHT22;13658;44.534;18.694;2023-05-31T12:40:13;23.60;99.90
25825;DHT22;13658;44.534;18.694;2023-05-31T12:42:39;23.80;99.90
25825;DHT22;13658;44.534;18.694;2023-05-31T12:45:06;23.60;99.90
25825;DHT22;13658;44.534;18.694;2023-05-31T12:47:36;23.50;99.90
25825;DHT22;13658;44.534;18.694;2023-05-31T12:50:06;23.70;99.90
25825;DHT22;13658;44.534;18.694;2023-05-31T12:52:34;23.40;99.90
25825;DHT22;13658;44.534;18.694;2023-05-31T12:55:00;23.50;99.90
25825;DHT22;13658;44.534;18.694;2023-05-31T12:57:30;23.40;99.90
25825;DHT22;13658;44.534;18.694;2023-05-31T13:00:06;23.40;99.90
25825;DHT22;13658;44.534;18.694;2023-05-31T13:02:40;23.40;99.90
25825;DHT22;13658;44.534;18.694;2023-05-31T13:05:07;23.10;99.90
25825;DHT22;13658;44.534;18.694;2023-05-31T13:07:34;23.20;99.90
25825;DHT22;13658;44.534;18.694;2023-05-31T13:10:02;23.30;99.90
25825;DHT22;13658;44.534;18.694;2023-05-31T13:12:28;23.60;99.90
25825;DHT22;13658;44.534;18.694;2023-05-31T13:14:54;23.70;99.90
25825;DHT22;13658;44.534;18.694;2023-05-31T13:17:20;23.80;99.90
25825;DHT22;13658;44.534;18.694;2023-05-31T13:19:46;24.10;99.90
25825;DHT22;13658;44.534;18.694;2023-05-31T13:22:12;24.20;99.90
25825;DHT22;13658;44.534;18.694;2023-05-31T13:24:39;24.20;99.90
25825;DHT22;13658;44.534;18.694;2023-05-31T13:27:05;24.20;99.90
25825;DHT22;13658;44.534;18.694;2023-05-31T13:29:31;24.10;99.90
25825;DHT22;13658;44.534;18.694;2023-05-31T13:31:57;23.90;99.90
25825;DHT22;13658;44.534;18.694;2023-05-31T13:34:25;23.80;99.90
25825;DHT22;13658;44.534;18.694;2023-05-31T13:36:51;23.70;99.90
25825;DHT22;13658;44.534;18.694;2023-05-31T13:39:17;23.60;99.90
25825;DHT22;13658;44.534;18.694;2023-05-31T13:41:44;23.30;99.90
25825;DHT22;13658;44.534;18.694;2023-05-31T13:44:10;23.40;99.90
25825;DHT22;13658;44.534;18.694;2023-05-31T13:46:42;23.30;99.90
25825;DHT22;13658;44.534;18.694;2023-05-31T13:49:08;23.20;99.90
25825;DHT22;13658;44.534;18.694;2023-05-31T13:51:34;22.90;99.90
25825;DHT22;13658;44.534;18.694;2023-05-31T13:54:00;22.90;99.90
25825;DHT22;13658;44.534;18.694;2023-05-31T13:56:26;23.00;99.90
25825;DHT22;13658;44.534;18.694;2023-05-31T13:58:52;22.90;99.90
25825;DHT22;13658;44.534;18.694;2023-05-31T14:01:18;22.90;99.90
25825;DHT22;13658;44.534;18.694;2023-05-31T14:03:49;22.60;99.90
25825;DHT22;13658;44.534;18.694;2023-05-31T14:06:16;22.50;99.90
25825;DHT22;13658;44.534;18.694;2023-05-31T14:11:52;22.50;99.90
25825;DHT22;13658;44.534;18.694;2023-05-31T14:14:17;22.30;99.90
25825;DHT22;13658;44.534;18.694;2023-05-31T14:16:43;22.30;99.90
25825;DHT22;13658;44.534;18.694;2023-05-31T14:19:09;22.30;99.90
25825;DHT22;13658;44.534;18.694;2023-05-31T14:21:35;22.40;99.90
25825;DHT22;13658;44.534;18.694;2023-05-31T14:24:03;22.50;99.90
25825;DHT22;13658;44.534;18.694;2023-05-31T14:26:29;22.50;99.90
25825;DHT22;13658;44.534;18.694;2023-05-31T14:28:55;22.50;99.90
25825;DHT22;13658;44.534;18.694;2023-05-31T14:31:21;22.40;99.90
25825;DHT22;13658;44.534;18.694;2023-05-31T14:33:47;22.40;99.90
25825;DHT22;13658;44.534;18.694;2023-05-31T14:36:13;22.40;99.90
25825;DHT22;13658;44.534;18.694;2023-05-31T14:38:39;22.40;99.90
25825;DHT22;13658;44.534;18.694;2023-05-31T14:41:05;22.40;99.90
25825;DHT22;13658;44.534;18.694;2023-05-31T14:43:31;22.50;99.90
25825;DHT22;13658;44.534;18.694;2023-05-31T14:45:59;22.40;99.90
25825;DHT22;13658;44.534;18.694;2023-05-31T14:48:25;22.40;99.90
25825;DHT22;13658;44.534;18.694;2023-05-31T14:50:51;22.10;99.90
25825;DHT22;13658;44.534;18.694;2023-05-31T14:53:17;22.10;99.90
25825;DHT22;13658;44.534;18.694;2023-05-31T14:55:43;21.90;99.90
25825;DHT22;13658;44.534;18.694;2023-05-31T14:58:09;21.90;99.90
25825;DHT22;13658;44.534;18.694;2023-05-31T15:00:36;22.00;99.90
25825;DHT22;13658;44.534;18.694;2023-05-31T15:03:02;21.80;99.90
25825;DHT22;13658;44.534;18.694;2023-05-31T15:05:28;21.90;99.90
25825;DHT22;13658;44.534;18.694;2023-05-31T15:07:54;21.70;99.90
25825;DHT22;13658;44.534;18.694;2023-05-31T15:10:20;21.90;99.90
25825;DHT22;13658;44.534;18.694;2023-05-31T15:12:46;22.00;99.90
25825;DHT22;13658;44.534;18.694;2023-05-31T15:15:13;22.10;99.90
25825;DHT22;13658;44.534;18.694;2023-05-31T15:17:41;22.20;99.90
25825;DHT22;13658;44.534;18.694;2023-05-31T15:20:07;22.20;99.90
25825;DHT22;13658;44.534;18.694;2023-05-31T15:22:33;22.30;99.90
25825;DHT22;13658;44.534;18.694;2023-05-31T15:24:59;22.40;99.90
25825;DHT22;13658;44.534;18.694;2023-05-31T15:27:25;22.50;99.90
25825;DHT22;13658;44.534;18.694;2023-05-31T15:29:51;22.40;99.90
25825;DHT22;13658;44.534;18.694;2023-05-31T15:32:17;22.50;99.90
25825;DHT22;13658;44.534;18.694;2023-05-31T15:34:43;22.70;99.90
25825;DHT22;13658;44.534;18.694;2023-05-31T15:37:09;22.50;99.90
25825;DHT22;13658;44.534;18.694;2023-05-31T15:39:35;22.40;99.90
25825;DHT22;13658;44.534;18.694;2023-05-31T15:42:00;22.20;99.90
25825;DHT22;13658;44.534;18.694;2023-05-31T15:44:29;22.20;99.90